Time;durP1;ratioP1;P1;durP2;ratioP2;P2;SDS_P1;SDS_P2;PMS_P1;PMS_P2;Temp;Humidity;BMP_temperature;BMP_pressure;BME280_temperature;BME280_humidity;BME280_pressure;Samples;Min_cycle;Max_cycle;Signal;HPM_P1;HPM_P2
2021/12/28 00:00:43;;;;;;;48.30;16.58;;;7.20;99.90;;;;;;5038232;28;20026;-91
2021/12/28 00:03:08;;;;;;;35.55;14.90;;;7.20;99.90;;;;;;5037567;28;20030;-92
2021/12/28 00:05:34;;;;;;;49.58;16.50;;;7.20;99.90;;;;;;5037909;28;20045;-92
2021/12/28 00:08:00;;;;;;;65.45;22.35;;;7.20;99.90;;;;;;5037471;28;20040;-91
2021/12/28 00:10:25;;;;;;;46.70;17.00;;;7.20;99.90;;;;;;5038028;28;20426;-93
2021/12/28 00:12:51;;;;;;;47.95;17.60;;;7.20;99.90;;;;;;5038591;28;20044;-92
2021/12/28 00:18:04;;;;;;;35.65;12.02;;;7.20;99.90;;;;;;5040801;28;20032;-91
2021/12/28 00:20:34;;;;;;;36.60;13.05;;;7.20;99.90;;;;;;5039019;28;20045;-91
2021/12/28 00:23:01;;;;;;;30.30;11.73;;;7.20;99.90;;;;;;5038396;28;20028;-90
2021/12/28 00:25:28;;;;;;;26.15;9.35;;;7.20;99.90;;;;;;5039430;28;20097;-90
2021/12/28 00:27:55;;;;;;;20.77;8.10;;;7.20;99.90;;;;;;5038363;28;20061;-90
2021/12/28 00:30:21;;;;;;;26.75;8.80;;;7.20;99.90;;;;;;5037131;28;20395;-91
2021/12/28 00:32:52;;;;;;;25.27;8.18;;;7.20;99.90;;;;;;5035908;28;20479;-91
2021/12/28 00:35:20;;;;;;;19.48;7.63;;;7.20;99.90;;;;;;5038264;28;20090;-91
2021/12/28 00:37:46;;;;;;;21.27;8.00;;;7.20;99.90;;;;;;5037841;28;20029;-90
2021/12/28 00:40:11;;;;;;;22.15;7.28;;;7.20;99.90;;;;;;5033866;28;20028;-89
2021/12/28 00:42:37;;;;;;;22.95;7.82;;;7.20;99.90;;;;;;5036807;28;20026;-90
2021/12/28 00:45:04;;;;;;;33.95;9.18;;;7.20;99.90;;;;;;5036852;28;20107;-90
2021/12/28 00:47:30;;;;;;;29.40;10.52;;;7.20;99.90;;;;;;5038065;28;20503;-91
2021/12/28 00:49:56;;;;;;;34.33;12.98;;;7.20;99.90;;;;;;5038164;28;20068;-90
2021/12/28 00:52:22;;;;;;;23.77;9.45;;;7.20;99.90;;;;;;5035769;28;20029;-91
2021/12/28 00:54:48;;;;;;;28.98;11.30;;;7.20;99.90;;;;;;5037191;28;20057;-90
2021/12/28 00:57:14;;;;;;;26.02;10.50;;;7.20;99.90;;;;;;5038254;28;20388;-92
2021/12/28 00:59:39;;;;;;;22.55;10.88;;;7.20;99.90;;;;;;5038241;28;20061;-91
2021/12/28 01:02:05;;;;;;;40.08;11.30;;;7.20;99.90;;;;;;5037917;28;20030;-91
2021/12/28 01:04:31;;;;;;;22.42;9.00;;;7.20;99.90;;;;;;5036753;28;20025;-90
2021/12/28 01:06:57;;;;;;;28.75;10.82;;;7.20;99.90;;;;;;5038144;28;20021;-90
2021/12/28 01:09:29;;;;;;;24.65;10.50;;;7.20;99.90;;;;;;5037939;28;20041;-90
2021/12/28 01:11:57;;;;;;;22.67;10.25;;;7.30;99.90;;;;;;5037778;28;20030;-90
2021/12/28 01:14:23;;;;;;;25.23;10.75;;;7.30;99.90;;;;;;5038037;28;20037;-91
2021/12/28 01:16:48;;;;;;;26.00;12.10;;;7.20;99.90;;;;;;5037993;28;20026;-90
2021/12/28 01:19:14;;;;;;;24.83;10.63;;;7.20;99.90;;;;;;5037858;28;20022;-91
2021/12/28 01:21:40;;;;;;;25.50;10.27;;;7.20;99.90;;;;;;5038426;28;20498;-91
2021/12/28 01:24:06;;;;;;;21.13;9.60;;;7.20;99.90;;;;;;5037722;28;20021;-89
2021/12/28 01:26:31;;;;;;;27.15;11.25;;;7.20;99.90;;;;;;5038058;28;20052;-90
2021/12/28 01:28:57;;;;;;;30.52;12.45;;;7.20;99.90;;;;;;5040786;28;20495;-90
2021/12/28 01:31:23;;;;;;;36.88;12.45;;;7.20;99.90;;;;;;5041943;28;20033;-90
2021/12/28 01:33:49;;;;;;;35.33;12.45;;;7.20;99.90;;;;;;5041876;28;20025;-90
2021/12/28 01:36:15;;;;;;;30.20;11.23;;;7.30;99.90;;;;;;5041844;28;20021;-91
2021/12/28 01:38:41;;;;;;;30.83;11.25;;;7.30;99.90;;;;;;5042194;28;20153;-90
2021/12/28 01:41:09;;;;;;;39.53;12.27;;;7.30;99.90;;;;;;5042192;28;20025;-91
2021/12/28 01:43:37;;;;;;;25.65;9.95;;;7.20;99.90;;;;;;5041468;28;20021;-91
2021/12/28 01:46:03;;;;;;;17.80;7.75;;;7.20;99.90;;;;;;5040763;28;20128;-91
2021/12/28 01:48:33;;;;;;;20.50;8.35;;;7.30;99.90;;;;;;5041803;28;20029;-91
2021/12/28 01:51:03;;;;;;;23.33;9.05;;;7.20;99.90;;;;;;5041431;28;20066;-91
2021/12/28 01:53:29;;;;;;;;;;;7.30;99.90;;;;;;5041058;28;20025;-91
2021/12/28 01:55:57;;;;;;;21.00;8.38;;;7.30;99.90;;;;;;5041820;28;19943;-90
2021/12/28 01:58:24;;;;;;;26.88;8.45;;;7.30;99.90;;;;;;5041962;28;20030;-89
2021/12/28 02:00:51;;;;;;;23.08;7.95;;;7.30;99.90;;;;;;5042157;28;20037;-91
2021/12/28 02:03:19;;;;;;;18.02;7.43;;;7.30;99.90;;;;;;5041329;28;20253;-90
2021/12/28 02:05:46;;;;;;;20.63;7.93;;;7.30;99.90;;;;;;5041599;28;20482;-91
2021/12/28 02:08:13;;;;;;;17.25;7.80;;;7.30;99.90;;;;;;5042434;28;20018;-90
2021/12/28 02:10:50;;;;;;;21.40;8.10;;;7.30;99.90;;;;;;5041431;28;20048;-91
2021/12/28 02:13:17;;;;;;;23.83;8.35;;;7.20;99.90;;;;;;5041081;28;20030;-91
2021/12/28 02:15:43;;;;;;;19.52;8.05;;;7.20;99.90;;;;;;5040783;28;20083;-90
2021/12/28 02:18:11;;;;;;;20.92;8.02;;;7.20;99.90;;;;;;5040722;28;20034;-92
2021/12/28 02:20:39;;;;;;;21.80;8.75;;;7.30;99.90;;;;;;5040818;28;20398;-91
2021/12/28 02:23:05;;;;;;;22.67;8.63;;;7.30;99.90;;;;;;5041398;28;20018;-92
2021/12/28 02:25:31;;;;;;;18.50;7.85;;;7.30;99.90;;;;;;5040821;28;20029;-92
2021/12/28 02:27:58;;;;;;;17.92;7.47;;;7.30;99.90;;;;;;5040668;28;20021;-91
2021/12/28 02:30:24;;;;;;;18.27;8.50;;;7.30;99.90;;;;;;5040166;28;20045;-91
2021/12/28 02:32:52;;;;;;;22.08;7.65;;;7.30;99.90;;;;;;5038323;28;20035;-91
2021/12/28 02:35:23;;;;;;;21.13;9.43;;;7.20;99.90;;;;;;5039897;28;20025;-92
2021/12/28 02:37:50;;;;;;;21.77;9.30;;;7.20;99.90;;;;;;5039875;28;20022;-91
2021/12/28 02:40:19;;;;;;;27.05;9.85;;;7.20;99.90;;;;;;5040115;28;20088;-91
2021/12/28 02:42:45;;;;;;;25.05;9.50;;;7.20;99.90;;;;;;5040222;28;20071;-91
2021/12/28 02:45:28;;;;;;;14.93;7.15;;;7.30;99.90;;;;;;5040261;28;20390;-89
2021/12/28 02:47:55;;;;;;;20.63;8.45;;;7.20;99.90;;;;;;5036401;28;20044;-90
2021/12/28 02:50:26;;;;;;;35.85;10.50;;;7.20;99.90;;;;;;5039703;28;20517;-90
2021/12/28 02:52:52;;;;;;;31.67;10.30;;;7.20;99.90;;;;;;5039524;28;20047;-90
2021/12/28 02:55:22;;;;;;;21.00;8.88;;;7.20;99.90;;;;;;5038992;28;20030;-90
2021/12/28 02:57:50;;;;;;;36.25;11.18;;;7.30;99.90;;;;;;5038392;28;20355;-89
2021/12/28 03:00:47;;;;;;;57.72;10.55;;;7.30;99.90;;;;;;5039133;28;20097;-91
2021/12/28 03:03:18;;;;;;;23.63;9.40;;;7.30;99.90;;;;;;5040128;28;20021;-91
2021/12/28 03:05:46;;;;;;;27.98;10.05;;;7.30;99.90;;;;;;5040337;28;20037;-91
2021/12/28 03:08:13;;;;;;;21.83;8.80;;;7.30;99.90;;;;;;5040226;28;20056;-92
2021/12/28 03:10:41;;;;;;;56.60;11.18;;;7.30;99.90;;;;;;5040174;28;20040;-91
2021/12/28 03:13:08;;;;;;;31.58;10.15;;;7.20;99.90;;;;;;5040434;28;20398;-90
2021/12/28 03:15:34;;;;;;;116.38;12.68;;;7.20;99.90;;;;;;5039619;28;20033;-90
2021/12/28 03:18:00;;;;;;;28.52;10.63;;;7.20;99.90;;;;;;5038650;28;20032;-90
2021/12/28 03:20:26;;;;;;;81.43;12.05;;;7.30;99.90;;;;;;5039567;28;20035;-91
2021/12/28 03:22:52;;;;;;;39.85;10.68;;;7.30;99.90;;;;;;5039779;28;20121;-90
2021/12/28 03:25:18;;;;;;;31.55;10.48;;;7.20;99.90;;;;;;5038612;28;20041;-90
2021/12/28 03:27:44;;;;;;;27.98;9.25;;;7.30;99.90;;;;;;5039324;28;20472;-90
2021/12/28 03:30:13;;;;;;;174.40;13.25;;;7.30;99.90;;;;;;5039693;28;20041;-90
2021/12/28 03:32:39;;;;;;;119.20;14.25;;;7.30;99.90;;;;;;5039332;28;20044;-90
2021/12/28 03:35:06;;;;;;;101.38;12.68;;;7.20;99.90;;;;;;5039455;28;20025;-91
2021/12/28 03:37:33;;;;;;;57.55;10.90;;;7.30;99.90;;;;;;5039652;28;20482;-92
2021/12/28 03:39:59;;;;;;;21.05;9.18;;;7.20;99.90;;;;;;5039332;28;20029;-93
2021/12/28 03:42:26;;;;;;;25.63;10.13;;;7.20;99.90;;;;;;5039348;28;20174;-90
2021/12/28 03:44:52;;;;;;;25.20;9.43;;;7.30;99.90;;;;;;5038854;28;20025;-91
2021/12/28 03:47:18;;;;;;;28.40;10.13;;;7.20;99.90;;;;;;5037760;28;20029;-91
2021/12/28 03:49:43;;;;;;;24.23;9.27;;;7.20;99.90;;;;;;5038954;28;20037;-91
2021/12/28 03:52:09;;;;;;;123.03;12.18;;;7.20;99.90;;;;;;5038890;28;20023;-90
2021/12/28 03:54:35;;;;;;;39.70;10.48;;;7.20;99.90;;;;;;5038497;28;20021;-91
2021/12/28 03:57:03;;;;;;;29.75;8.15;;;7.20;99.90;;;;;;5039773;28;20028;-90
2021/12/28 03:59:29;;;;;;;21.55;8.95;;;7.20;99.90;;;;;;5039718;28;20026;-92
2021/12/28 04:01:55;;;;;;;27.55;9.75;;;7.20;99.90;;;;;;5038583;28;20026;-91
2021/12/28 04:04:22;;;;;;;31.80;10.52;;;7.20;99.90;;;;;;5037503;28;20398;-90
2021/12/28 04:06:47;;;;;;;30.75;11.50;;;7.20;99.90;;;;;;5038387;28;20018;-91
2021/12/28 04:09:20;;;;;;;32.47;11.88;;;7.20;99.90;;;;;;5036695;28;20056;-91
2021/12/28 04:11:46;;;;;;;35.30;10.80;;;7.20;99.90;;;;;;5039060;28;20052;-91
2021/12/28 04:14:12;;;;;;;38.45;10.48;;;7.20;99.90;;;;;;5037495;28;20033;-90
2021/12/28 04:16:37;;;;;;;36.53;11.93;;;7.20;99.90;;;;;;5039058;28;20039;-90
2021/12/28 04:19:05;;;;;;;31.30;11.57;;;7.20;99.90;;;;;;5038463;28;20091;-91
2021/12/28 04:21:33;;;;;;;158.40;15.07;;;7.20;99.90;;;;;;5038226;28;20125;-91
2021/12/28 04:23:59;;;;;;;54.42;12.35;;;7.20;99.90;;;;;;5038118;28;20069;-91
2021/12/28 04:26:27;;;;;;;29.20;9.57;;;7.20;99.90;;;;;;5038452;28;20026;-91
2021/12/28 04:28:53;;;;;;;31.05;10.60;;;7.20;99.90;;;;;;5038551;28;20052;-91
2021/12/28 04:31:19;;;;;;;26.13;10.85;;;7.20;99.90;;;;;;5038224;28;20064;-92
2021/12/28 04:33:45;;;;;;;42.13;11.43;;;7.20;99.90;;;;;;5038261;28;20059;-91
2021/12/28 04:36:15;;;;;;;49.63;11.02;;;7.20;99.90;;;;;;5033795;28;20467;-91
2021/12/28 04:38:43;;;;;;;18.67;7.97;;;7.20;99.90;;;;;;5037589;28;20111;-91
2021/12/28 04:41:10;;;;;;;21.88;9.23;;;7.20;99.90;;;;;;5038665;28;20067;-91
2021/12/28 04:43:37;;;;;;;26.23;10.15;;;7.20;99.90;;;;;;5038368;28;20036;-91
2021/12/28 04:46:04;;;;;;;37.25;10.50;;;7.20;99.90;;;;;;5038629;28;20148;-90
2021/12/28 04:48:30;;;;;;;33.55;11.25;;;7.20;99.90;;;;;;5038162;28;20025;-91
2021/12/28 04:50:56;;;;;;;21.52;8.52;;;7.20;99.90;;;;;;5038100;28;20044;-91
2021/12/28 04:53:22;;;;;;;26.85;9.40;;;7.20;99.90;;;;;;5038553;28;20017;-90
2021/12/28 04:55:50;;;;;;;35.22;10.93;;;7.20;99.90;;;;;;5038803;28;20045;-91
2021/12/28 04:58:16;;;;;;;27.33;10.65;;;7.20;99.90;;;;;;5038384;28;20021;-91
2021/12/28 05:00:45;;;;;;;27.77;9.50;;;7.20;99.90;;;;;;5037576;28;20037;-91
2021/12/28 05:03:10;;;;;;;18.10;6.88;;;7.20;99.90;;;;;;5041822;28;20038;-90
2021/12/28 05:05:43;;;;;;;44.80;10.93;;;7.20;99.90;;;;;;5041882;28;20076;-90
2021/12/28 05:08:13;;;;;;;28.88;9.65;;;7.20;99.90;;;;;;5041927;28;20401;-91
2021/12/28 05:10:40;;;;;;;31.70;9.93;;;7.20;99.90;;;;;;5041686;28;20037;-91
2021/12/28 05:13:07;;;;;;;43.97;10.45;;;7.20;99.90;;;;;;5042028;28;20043;-92
2021/12/28 05:15:33;;;;;;;28.73;10.00;;;7.20;99.90;;;;;;5041971;28;20026;-91
2021/12/28 05:17:59;;;;;;;35.80;9.88;;;7.10;99.90;;;;;;5041058;28;20022;-92
2021/12/28 05:20:25;;;;;;;36.50;9.90;;;7.20;99.90;;;;;;5041170;28;20040;-90
2021/12/28 05:22:51;;;;;;;36.15;10.00;;;7.20;99.90;;;;;;5040392;28;20030;-91
2021/12/28 05:25:17;;;;;;;22.63;8.45;;;7.20;99.90;;;;;;5041518;28;20032;-91
2021/12/28 05:27:43;;;;;;;25.83;9.18;;;7.20;99.90;;;;;;5040701;28;20025;-88
2021/12/28 05:30:10;;;;;;;25.73;8.75;;;7.20;99.90;;;;;;5040331;28;20053;-90
2021/12/28 05:32:35;;;;;;;26.35;9.13;;;7.20;99.90;;;;;;5041169;28;20017;-92
2021/12/28 05:35:02;;;;;;;24.27;8.82;;;7.20;99.90;;;;;;5040109;28;20033;-90
2021/12/28 05:37:28;;;;;;;87.00;10.05;;;7.20;99.90;;;;;;5042204;28;20029;-90
2021/12/28 05:39:54;;;;;;;28.60;8.02;;;7.20;99.90;;;;;;5041295;28;20051;-92
2021/12/28 05:42:20;;;;;;;22.23;7.93;;;7.20;99.90;;;;;;5038535;28;20026;-91
2021/12/28 05:44:46;;;;;;;29.30;8.82;;;7.20;99.90;;;;;;5042127;28;20030;-91
2021/12/28 05:47:12;;;;;;;31.77;8.77;;;7.20;99.90;;;;;;5041182;28;20018;-91
2021/12/28 05:49:38;;;;;;;34.22;8.88;;;7.20;99.90;;;;;;5051300;28;20029;-91
2021/12/28 05:52:05;;;;;;;23.55;9.10;;;7.20;99.90;;;;;;5057181;28;20036;-91
2021/12/28 05:54:31;;;;;;;22.90;7.72;;;7.30;99.90;;;;;;5057437;28;20059;-91
2021/12/28 05:56:57;;;;;;;104.32;10.77;;;7.30;99.90;;;;;;5051134;28;20041;-91
2021/12/28 05:59:23;;;;;;;32.15;9.07;;;7.40;99.90;;;;;;5042159;28;20221;-91
2021/12/28 06:01:49;;;;;;;34.05;9.70;;;7.40;99.90;;;;;;5042715;28;20053;-91
2021/12/28 06:04:15;;;;;;;29.98;9.05;;;7.40;99.90;;;;;;5042862;28;20052;-90
2021/12/28 06:06:41;;;;;;;27.02;9.10;;;7.40;99.90;;;;;;5043187;28;20033;-91
2021/12/28 06:09:06;;;;;;;23.42;8.68;;;7.40;99.90;;;;;;5040508;28;20038;-91
2021/12/28 06:11:32;;;;;;;98.95;10.98;;;7.40;99.90;;;;;;5039136;28;20037;-91
2021/12/28 06:13:58;;;;;;;29.73;9.57;;;7.50;99.90;;;;;;5041259;28;20471;-90
2021/12/28 06:16:24;;;;;;;30.00;10.48;;;7.50;99.90;;;;;;5040693;28;20029;-91
2021/12/28 06:18:49;;;;;;;26.20;9.73;;;7.60;99.90;;;;;;5041289;28;20033;-92
2021/12/28 06:21:16;;;;;;;25.65;9.98;;;7.60;99.90;;;;;;5040897;28;20040;-90
2021/12/28 06:23:42;;;;;;;51.85;10.50;;;7.60;99.90;;;;;;5040261;28;20022;-90
2021/12/28 06:26:08;;;;;;;25.02;8.77;;;7.60;99.90;;;;;;5041004;28;20029;-90
2021/12/28 06:28:34;;;;;;;25.60;9.23;;;7.70;99.90;;;;;;5040247;28;20503;-90
2021/12/28 06:31:00;;;;;;;27.40;9.07;;;7.70;99.90;;;;;;5042400;28;20052;-91
2021/12/28 06:33:26;;;;;;;25.38;8.70;;;7.60;99.90;;;;;;5041419;28;20022;-90
2021/12/28 06:35:54;;;;;;;19.75;8.15;;;7.70;99.90;;;;;;5041123;28;20032;-92
2021/12/28 06:38:21;;;;;;;21.42;8.30;;;7.60;99.90;;;;;;5035291;28;20498;-91
2021/12/28 06:40:47;;;;;;;25.02;8.25;;;7.60;99.90;;;;;;5035934;28;20680;-91
2021/12/28 06:43:13;;;;;;;19.33;8.25;;;7.60;99.90;;;;;;5035541;28;20056;-91
2021/12/28 06:45:40;;;;;;;18.00;6.20;;;7.60;99.90;;;;;;5035856;28;20121;-91
2021/12/28 06:48:05;;;;;;;20.38;7.25;;;7.60;99.90;;;;;;5035377;28;20407;-91
2021/12/28 06:50:31;;;;;;;14.88;6.15;;;7.60;99.90;;;;;;5034977;28;20033;-91
2021/12/28 06:52:57;;;;;;;15.15;6.25;;;7.60;99.90;;;;;;5034645;28;20025;-92
2021/12/28 06:55:23;;;;;;;13.93;5.47;;;7.50;99.90;;;;;;5035011;28;20537;-91
2021/12/28 06:57:48;;;;;;;14.70;6.50;;;7.50;99.90;;;;;;5034631;28;20018;-91
2021/12/28 07:00:17;;;;;;;17.30;6.85;;;7.50;99.90;;;;;;5034686;28;20384;-89
2021/12/28 07:02:43;;;;;;;23.38;7.80;;;7.50;99.90;;;;;;5034650;28;20026;-90
2021/12/28 07:05:11;;;;;;;20.35;8.70;;;7.50;99.90;;;;;;5034681;28;20110;-92
2021/12/28 07:07:38;;;;;;;22.65;9.10;;;7.50;99.90;;;;;;5034619;28;20025;-90
2021/12/28 07:10:06;;;;;;;20.15;7.18;;;7.50;99.90;;;;;;5033963;28;20188;-91
2021/12/28 07:12:32;;;;;;;17.30;7.53;;;7.50;99.90;;;;;;5034056;28;20032;-91
2021/12/28 07:14:58;;;;;;;17.55;6.70;;;7.40;99.90;;;;;;5034180;28;20111;-92
2021/12/28 07:17:26;;;;;;;14.40;6.35;;;7.40;99.90;;;;;;5034019;28;20512;-91
2021/12/28 07:19:52;;;;;;;19.25;7.35;;;7.40;99.90;;;;;;5033839;28;20029;-91
2021/12/28 07:22:18;;;;;;;16.17;6.88;;;7.40;99.90;;;;;;5033664;28;20433;-91
2021/12/28 07:24:44;;;;;;;15.35;7.30;;;7.40;99.90;;;;;;5033738;28;20034;-90
2021/12/28 07:27:10;;;;;;;22.35;7.47;;;7.40;99.90;;;;;;5035287;28;20021;-91
2021/12/28 07:29:35;;;;;;;29.38;7.20;;;7.40;99.90;;;;;;5033545;28;20529;-90
2021/12/28 07:32:02;;;;;;;187.98;10.30;;;7.40;99.90;;;;;;5033596;28;20033;-90
2021/12/28 07:34:29;;;;;;;21.95;5.85;;;7.40;99.90;;;;;;5033374;28;20022;-91
2021/12/28 07:36:54;;;;;;;88.70;6.55;;;7.40;99.90;;;;;;5033534;28;20171;-90
2021/12/28 07:39:21;;;;;;;13.40;4.60;;;7.40;99.90;;;;;;5034868;28;20053;-91
2021/12/28 07:41:46;;;;;;;9.68;4.68;;;7.30;99.90;;;;;;5033512;28;20037;-89
2021/12/28 07:44:12;;;;;;;9.52;4.50;;;7.30;99.90;;;;;;5033219;28;20057;-91
2021/12/28 07:46:38;;;;;;;13.38;4.65;;;7.30;99.90;;;;;;5033090;28;20032;-91
2021/12/28 07:49:03;;;;;;;92.68;7.07;;;7.30;99.90;;;;;;5033119;28;20134;-90
2021/12/28 07:51:29;;;;;;;25.80;4.50;;;7.30;99.90;;;;;;5033224;28;20045;-90
2021/12/28 07:53:55;;;;;;;114.70;6.40;;;7.30;99.90;;;;;;5033062;28;20017;-92
2021/12/28 07:56:20;;;;;;;22.00;3.95;;;7.30;99.90;;;;;;5032942;28;20044;-91
2021/12/28 07:58:46;;;;;;;6.78;3.78;;;7.30;99.90;;;;;;5033130;28;20471;-91
2021/12/28 08:01:12;;;;;;;8.93;3.28;;;7.30;99.90;;;;;;5032867;28;20057;-90
2021/12/28 08:03:37;;;;;;;5.13;3.03;;;7.20;99.90;;;;;;5034574;28;20022;-90
2021/12/28 08:06:03;;;;;;;4.15;2.63;;;7.20;99.90;;;;;;5033571;28;20029;-90
2021/12/28 08:08:29;;;;;;;4.13;2.50;;;7.20;99.90;;;;;;5032705;28;20116;-91
2021/12/28 08:10:55;;;;;;;7.00;2.78;;;7.20;99.90;;;;;;5032777;28;20453;-91
2021/12/28 08:13:21;;;;;;;5.57;2.63;;;7.20;99.90;;;;;;5032821;28;20025;-90
2021/12/28 08:15:47;;;;;;;4.70;2.80;;;7.20;99.90;;;;;;5032708;28;20132;-90
2021/12/28 08:18:13;;;;;;;5.95;2.88;;;7.20;99.90;;;;;;5032729;28;20029;-90
2021/12/28 08:20:39;;;;;;;4.88;2.58;;;7.20;99.90;;;;;;5032056;28;20295;-91
2021/12/28 08:23:06;;;;;;;6.43;2.72;;;7.20;99.90;;;;;;5032324;28;20121;-91
2021/12/28 08:25:32;;;;;;;7.10;2.92;;;7.20;99.90;;;;;;5032296;28;20048;-91
2021/12/28 08:27:58;;;;;;;5.00;2.65;;;7.20;99.90;;;;;;5031960;28;20017;-91
2021/12/28 08:30:23;;;;;;;5.63;3.13;;;7.20;99.90;;;;;;5032105;28;20045;-90
2021/12/28 08:32:50;;;;;;;5.18;2.75;;;7.30;99.90;;;;;;5032095;28;20108;-90
2021/12/28 08:35:16;;;;;;;5.68;3.03;;;7.30;99.90;;;;;;5032334;28;20040;-90
2021/12/28 08:37:42;;;;;;;6.63;2.80;;;7.30;99.90;;;;;;5032007;28;20022;-90
2021/12/28 08:40:11;;;;;;;7.00;2.75;;;7.30;99.90;;;;;;5032286;28;20087;-91
2021/12/28 08:42:36;;;;;;;5.45;2.80;;;7.30;99.90;;;;;;5031916;28;20029;-91
2021/12/28 08:45:04;;;;;;;4.55;3.22;;;7.30;99.90;;;;;;5032149;28;20037;-92
2021/12/28 08:47:30;;;;;;;4.28;2.83;;;7.40;99.90;;;;;;5032454;28;20116;-92
2021/12/28 08:49:58;;;;;;;5.20;2.80;;;7.40;99.90;;;;;;5032634;28;20575;-92
2021/12/28 08:52:24;;;;;;;3.10;2.30;;;7.30;99.90;;;;;;5032639;28;20124;-91
2021/12/28 08:54:51;;;;;;;6.20;2.35;;;7.40;99.90;;;;;;5032663;28;20036;-90
2021/12/28 08:57:20;;;;;;;5.88;2.45;;;7.40;99.90;;;;;;5032745;28;20033;-90
2021/12/28 08:59:47;;;;;;;5.03;2.63;;;7.30;99.90;;;;;;5032239;28;20033;-90
2021/12/28 09:02:13;;;;;;;3.60;2.20;;;7.30;99.90;;;;;;5031951;28;20043;-90
2021/12/28 09:04:43;;;;;;;4.05;2.50;;;7.40;99.90;;;;;;5032048;28;20025;-91
2021/12/28 09:07:17;;;;;;;4.88;2.03;;;7.40;99.90;;;;;;5032172;28;20376;-91
2021/12/28 09:09:44;;;;;;;5.97;2.30;;;7.30;99.90;;;;;;5032106;28;20458;-91
2021/12/28 09:12:10;;;;;;;5.47;1.80;;;7.30;99.90;;;;;;5032167;28;20025;-90
2021/12/28 09:14:36;;;;;;;7.60;3.00;;;7.30;99.90;;;;;;5032362;28;20083;-90
2021/12/28 09:17:03;;;;;;;6.20;2.28;;;7.30;99.90;;;;;;5032224;28;20023;-90
2021/12/28 09:19:29;;;;;;;5.75;2.35;;;7.30;99.90;;;;;;5032283;28;20048;-91
2021/12/28 09:21:55;;;;;;;6.85;2.08;;;7.30;99.90;;;;;;5032303;28;20060;-91
2021/12/28 09:24:21;;;;;;;4.05;1.98;;;7.30;99.90;;;;;;5032128;28;20035;-91
2021/12/28 09:26:47;;;;;;;3.67;1.10;;;7.30;99.90;;;;;;5032271;28;20032;-91
2021/12/28 09:29:13;;;;;;;3.38;0.85;;;7.30;99.90;;;;;;5032096;28;20049;-90
2021/12/28 09:31:38;;;;;;;1.85;1.10;;;7.30;99.90;;;;;;5032567;28;20091;-90
2021/12/28 09:34:04;;;;;;;1.25;0.60;;;7.30;99.90;;;;;;5032059;28;20029;-91
2021/12/28 09:36:30;;;;;;;1.20;0.70;;;7.30;99.90;;;;;;5035335;28;20057;-90
2021/12/28 09:38:56;;;;;;;0.90;0.45;;;7.30;99.90;;;;;;5038202;28;20026;-90
2021/12/28 09:41:21;;;;;;;1.33;0.75;;;7.30;99.90;;;;;;5032288;28;20057;-91
2021/12/28 09:43:47;;;;;;;2.05;0.50;;;7.30;99.90;;;;;;5032104;28;20033;-91
2021/12/28 09:46:13;;;;;;;0.50;0.40;;;7.30;99.90;;;;;;5032007;28;20033;-92
2021/12/28 09:48:39;;;;;;;0.52;0.43;;;7.30;99.90;;;;;;5033851;28;20049;-91
2021/12/28 09:51:08;;;;;;;0.65;0.50;;;7.30;99.90;;;;;;5035538;28;20072;-91
2021/12/28 09:53:35;;;;;;;0.95;0.38;;;7.30;99.90;;;;;;5035675;28;20150;-92
2021/12/28 09:56:02;;;;;;;0.38;0.30;;;7.30;99.90;;;;;;5035528;28;20368;-92
2021/12/28 09:58:28;;;;;;;0.20;0.20;;;7.30;99.90;;;;;;5035261;28;20139;-91
2021/12/28 10:00:54;;;;;;;0.70;0.50;;;7.20;99.90;;;;;;5035503;28;20509;-91
2021/12/28 10:03:19;;;;;;;0.75;0.30;;;7.30;99.90;;;;;;5035278;28;20037;-92
2021/12/28 10:05:45;;;;;;;0.47;0.47;;;7.20;99.90;;;;;;5035710;28;20040;-92
2021/12/28 10:08:13;;;;;;;0.70;0.28;;;7.30;99.90;;;;;;5035268;28;20058;-91
2021/12/28 10:10:43;;;;;;;0.47;0.40;;;7.20;99.90;;;;;;5035110;28;20034;-93
2021/12/28 10:13:17;;;;;;;0.55;0.43;;;7.30;99.90;;;;;;5035149;28;20471;-91
2021/12/28 10:15:45;;;;;;;5.25;1.05;;;7.30;99.90;;;;;;5035417;28;20026;-92
2021/12/28 10:18:12;;;;;;;0.55;0.50;;;7.30;99.90;;;;;;5035235;28;20021;-91
2021/12/28 10:20:50;;;;;;;0.47;0.47;;;7.30;99.90;;;;;;5035232;28;20108;-91
2021/12/28 10:23:22;;;;;;;1.90;1.10;;;7.40;99.90;;;;;;5035531;28;20048;-91
2021/12/28 10:25:53;;;;;;;1.35;1.15;;;7.60;99.90;;;;;;5035156;28;20032;-91
2021/12/28 10:28:33;;;;;;;3.15;1.33;;;8.00;99.90;;;;;;5036009;28;20042;-92
2021/12/28 10:31:25;;;;;;;1.52;1.20;;;8.40;99.90;;;;;;5036669;28;20037;-91
2021/12/28 10:33:57;;;;;;;1.42;1.00;;;8.90;99.90;;;;;;5047020;28;20475;-91
2021/12/28 10:36:32;;;;;;;1.30;0.75;;;9.30;99.90;;;;;;5055940;28;20037;-91
2021/12/28 10:38:58;;;;;;;0.93;0.70;;;9.70;99.90;;;;;;5053934;28;20072;-92
2021/12/28 10:41:23;;;;;;;1.10;1.00;;;10.00;99.90;;;;;;5035368;28;20037;-91
2021/12/28 10:43:54;;;;;;;1.10;0.70;;;10.20;99.90;;;;;;5034903;28;20021;-91
2021/12/28 10:46:23;;;;;;;1.48;0.98;;;10.40;99.90;;;;;;5034998;28;20053;-91
2021/12/28 10:48:55;;;;;;;0.68;0.60;;;10.40;99.90;;;;;;5034974;28;20025;-92
2021/12/28 10:51:28;;;;;;;1.52;0.90;;;10.60;99.90;;;;;;5034921;28;20392;-92
2021/12/28 10:56:30;;;;;;;0.82;0.60;;;10.80;99.90;;;;;;5035804;28;20042;-91
2021/12/28 10:58:56;;;;;;;0.68;0.50;;;10.70;99.90;;;;;;5034165;28;20056;-91
2021/12/28 11:01:25;;;;;;;0.50;0.50;;;10.50;99.90;;;;;;5034917;28;20116;-92
2021/12/28 11:03:57;;;;;;;0.70;0.70;;;10.20;99.90;;;;;;5034479;28;20498;-90
2021/12/28 11:06:32;;;;;;;1.20;0.88;;;10.00;99.90;;;;;;5034410;28;20060;-92
2021/12/28 11:09:03;;;;;;;0.90;0.70;;;9.80;99.90;;;;;;5033941;28;20041;-91
2021/12/28 11:11:32;;;;;;;;;;;9.70;99.90;;;;;;5035063;28;20032;-91
2021/12/28 11:14:01;;;;;;;0.90;0.77;;;9.50;99.90;;;;;;5034432;28;20366;-92
2021/12/28 11:16:28;;;;;;;1.13;0.82;;;9.40;99.90;;;;;;5034312;28;20033;-91
2021/12/28 11:18:56;;;;;;;1.08;0.90;;;9.30;99.90;;;;;;5035029;28;20485;-91
2021/12/28 11:21:33;;;;;;;0.75;0.73;;;9.20;99.90;;;;;;5034556;28;20467;-91
2021/12/28 11:24:10;;;;;;;1.02;0.93;;;9.10;99.90;;;;;;5018838;28;20036;-91
2021/12/28 11:26:37;;;;;;;3.15;1.00;;;9.00;99.90;;;;;;5034482;28;20116;-92
2021/12/28 11:29:05;;;;;;;0.80;0.80;;;9.00;99.90;;;;;;5034113;28;20057;-92
2021/12/28 11:31:43;;;;;;;1.23;0.95;;;8.90;99.90;;;;;;5034055;28;20045;-92
2021/12/28 11:34:18;;;;;;;1.20;1.10;;;8.90;99.90;;;;;;5033987;28;20049;-92
2021/12/28 11:37:00;;;;;;;0.85;0.85;;;8.90;99.90;;;;;;5034003;28;20560;-92
2021/12/28 11:39:38;;;;;;;0.82;0.82;;;8.90;99.90;;;;;;5033991;28;20036;-92
2021/12/28 11:42:05;;;;;;;1.50;1.20;;;8.90;99.90;;;;;;5033963;28;20060;-91
2021/12/28 11:44:34;;;;;;;1.58;0.93;;;8.80;99.90;;;;;;5033552;28;20398;-91
2021/12/28 11:47:02;;;;;;;0.82;0.77;;;8.90;99.90;;;;;;5033828;28;20032;-91
2021/12/28 11:49:29;;;;;;;2.28;0.63;;;8.90;99.90;;;;;;5033342;28;20041;-92
2021/12/28 11:52:00;;;;;;;0.63;0.63;;;8.90;99.90;;;;;;5033522;28;20034;-91
2021/12/28 11:54:29;;;;;;;0.60;0.60;;;8.90;99.90;;;;;;5033912;28;20116;-91
2021/12/28 11:57:00;;;;;;;3.88;1.73;;;8.90;99.90;;;;;;5033425;28;20109;-92
2021/12/28 11:59:28;;;;;;;1.35;0.80;;;8.90;99.90;;;;;;5033565;28;20024;-91
2021/12/28 12:01:54;;;;;;;0.50;0.50;;;8.90;99.90;;;;;;5033456;28;20057;-91
2021/12/28 12:07:12;;;;;;;0.60;0.60;;;8.90;99.90;;;;;;5034244;28;20111;-91
2021/12/28 12:09:53;;;;;;;1.25;0.70;;;8.90;99.90;;;;;;5032921;28;20144;-92
2021/12/28 12:12:23;;;;;;;0.50;0.50;;;8.90;99.90;;;;;;5032467;28;20029;-92
2021/12/28 12:14:58;;;;;;;1.65;0.70;;;8.90;99.90;;;;;;5032821;28;20029;-90
2021/12/28 12:17:43;;;;;;;0.95;0.60;;;8.90;99.90;;;;;;5032940;28;20033;-91
2021/12/28 12:20:23;;;;;;;0.52;0.52;;;8.90;99.90;;;;;;5033145;28;20063;-92
2021/12/28 12:22:51;;;;;;;0.93;0.73;;;8.90;99.90;;;;;;5033089;28;20029;-92
2021/12/28 12:25:31;;;;;;;0.60;0.60;;;9.00;99.90;;;;;;5033025;28;20120;-91
2021/12/28 12:28:05;;;;;;;3.00;2.70;;;9.00;99.90;;;;;;5032664;28;20152;-92
2021/12/28 12:30:34;;;;;;;1.70;1.50;;;9.00;99.90;;;;;;5032690;28;20037;-93
2021/12/28 12:33:09;;;;;;;1.65;1.55;;;9.00;99.90;;;;;;5033031;28;20065;-92
2021/12/28 12:35:57;;;;;;;2.03;1.73;;;9.00;99.90;;;;;;5032829;28;20482;-91
2021/12/28 12:38:25;;;;;;;1.80;1.55;;;9.00;99.90;;;;;;5032743;28;20040;-91
2021/12/28 12:41:12;;;;;;;1.90;1.58;;;9.00;99.90;;;;;;5032617;28;20050;-92
2021/12/28 12:43:38;;;;;;;2.00;1.80;;;9.00;99.90;;;;;;5032688;28;20115;-91
2021/12/28 12:46:16;;;;;;;1.95;1.75;;;9.00;99.90;;;;;;5032885;28;20021;-91
2021/12/28 12:48:42;;;;;;;3.40;2.35;;;9.00;99.90;;;;;;5032651;28;20167;-91
2021/12/28 12:51:22;;;;;;;2.70;2.40;;;8.90;99.90;;;;;;5032304;28;20434;-93
2021/12/28 12:54:13;;;;;;;6.05;4.20;;;8.90;99.90;;;;;;5032429;28;20041;-92
2021/12/28 12:56:59;;;;;;;3.95;3.20;;;8.90;99.90;;;;;;5032876;28;20053;-93
2021/12/28 12:59:37;;;;;;;4.05;3.17;;;8.90;99.90;;;;;;5032263;28;20029;-92